createdAt,value
2023-04-02T00:01:26.818Z,4.20
2023-04-02T00:04:22.460Z,4.27
2023-04-02T00:06:46.174Z,4.80
2023-04-02T00:09:36.663Z,4.30
2023-04-02T00:12:15.577Z,4.47
2023-04-02T00:14:39.247Z,3.50
2023-04-02T00:17:07.289Z,4.07
2023-04-02T00:19:37.754Z,4.60
2023-04-02T00:22:03.561Z,4.73
2023-04-02T00:24:27.232Z,4.23
2023-04-02T00:26:52.925Z,4.47
2023-04-02T00:29:18.187Z,4.20
2023-04-02T00:31:46.452Z,4.37
2023-04-02T00:34:19.711Z,4.03
2023-04-02T00:36:46.697Z,4.63
2023-04-02T00:39:21.306Z,3.97
2023-04-02T00:41:47.742Z,4.20
2023-04-02T00:44:14.301Z,3.77
2023-04-02T00:46:47.121Z,4.20
2023-04-02T00:49:21.904Z,3.47
2023-04-02T00:51:51.640Z,4.17
2023-04-02T00:54:16.251Z,3.90
2023-04-02T00:56:44.657Z,3.73
2023-04-02T00:59:22.194Z,2.37
2023-04-02T01:01:47.197Z,5.40
2023-04-02T01:04:34.300Z,3.40
2023-04-02T01:06:59.757Z,3.83
2023-04-02T01:09:39.384Z,3.50
2023-04-02T01:12:22.149Z,3.60
2023-04-02T01:14:56.562Z,4.10
2023-04-02T01:17:40.181Z,4.03
2023-04-02T01:20:40.370Z,3.70
2023-04-02T01:23:09.298Z,3.37
2023-04-02T01:25:42.936Z,3.60
2023-04-02T01:28:14.885Z,3.50
2023-04-02T01:30:41.570Z,3.73
2023-04-02T01:33:07.131Z,3.30
2023-04-02T01:35:37.871Z,3.20
2023-04-02T01:38:10.561Z,3.50
2023-04-02T01:40:40.147Z,3.53
2023-04-02T01:43:15.760Z,3.40
2023-04-02T01:45:41.517Z,3.37
2023-04-02T01:48:10.520Z,3.17
2023-04-02T01:50:38.278Z,3.50
2023-04-02T01:53:05.417Z,3.07
2023-04-02T01:55:37.832Z,3.17
2023-04-02T01:58:03.903Z,3.57
2023-04-02T02:00:30.235Z,3.47
2023-04-02T02:02:56.244Z,3.27
2023-04-02T02:05:23.706Z,3.20
2023-04-02T02:07:49.616Z,3.10
2023-04-02T02:10:17.095Z,3.70
2023-04-02T02:12:41.027Z,3.40
2023-04-02T02:15:05.264Z,3.60
2023-04-02T02:17:33.770Z,3.20
2023-04-02T02:20:01.924Z,3.00
2023-04-02T02:22:31.250Z,3.30
2023-04-02T02:24:55.296Z,3.00
2023-04-02T02:27:50.465Z,3.20
2023-04-02T02:30:19.043Z,2.77
2023-04-02T02:32:53.752Z,2.93
2023-04-02T02:35:23.457Z,2.67
2023-04-02T02:37:57.883Z,2.70
2023-04-02T02:40:28.758Z,2.80
2023-04-02T02:42:56.560Z,2.80
2023-04-02T02:45:26.540Z,3.10
2023-04-02T02:47:52.764Z,2.70
2023-04-02T02:50:24.372Z,3.03
2023-04-02T02:52:54.305Z,3.17
2023-04-02T02:55:20.894Z,3.23
2023-04-02T02:58:06.968Z,2.20
2023-04-02T03:00:39.293Z,2.97
2023-04-02T03:03:07.359Z,2.87
2023-04-02T03:05:32.615Z,3.00
2023-04-02T03:08:06.410Z,2.77
2023-04-02T03:10:38.828Z,2.70
2023-04-02T03:13:13.514Z,2.70
2023-04-02T03:15:44.783Z,3.10
2023-04-02T03:18:14.781Z,3.33
2023-04-02T03:20:46.959Z,2.77
2023-04-02T03:23:20.534Z,3.27
2023-04-02T03:25:50.520Z,2.83
2023-04-02T03:28:18.430Z,2.80
2023-04-02T03:30:48.830Z,3.43
2023-04-02T03:33:22.690Z,3.27
2023-04-02T03:35:59.579Z,3.00
2023-04-02T03:38:28.711Z,3.03
2023-04-02T03:41:03.118Z,3.37
2023-04-02T03:43:30.362Z,3.13
2023-04-02T03:45:59.992Z,3.00
2023-04-02T03:48:30.390Z,2.90
2023-04-02T03:51:01.758Z,3.20
2023-04-02T03:53:27.041Z,2.87
2023-04-02T03:55:51.624Z,3.03
2023-04-02T03:58:22.561Z,3.33
2023-04-02T04:00:53.598Z,3.47
2023-04-02T04:03:22.864Z,2.60
2023-04-02T04:05:51.837Z,2.97
2023-04-02T04:08:21.038Z,3.10
2023-04-02T04:10:45.650Z,3.00
2023-04-02T04:13:14.759Z,3.13
2023-04-02T04:15:42.531Z,2.80
2023-04-02T04:18:19.234Z,2.80
2023-04-02T04:20:50.628Z,2.90
2023-04-02T04:23:30.139Z,2.83
2023-04-02T04:26:01.949Z,3.03
2023-04-02T04:28:38.435Z,2.40
2023-04-02T04:31:09.748Z,2.67
2023-04-02T04:33:42.068Z,2.47
2023-04-02T04:36:28.859Z,2.47
2023-04-02T04:39:21.556Z,2.83
2023-04-02T04:41:49.537Z,2.57
2023-04-02T04:44:22.591Z,2.60
2023-04-02T04:46:55.655Z,2.47
2023-04-02T04:49:24.540Z,2.63
2023-04-02T04:51:53.627Z,2.47
2023-04-02T04:54:20.261Z,1.93
2023-04-02T04:56:49.839Z,3.00
2023-04-02T04:59:20.587Z,2.57
2023-04-02T05:01:51.275Z,2.53
2023-04-02T05:04:23.896Z,2.20
2023-04-02T05:06:55.924Z,2.30
2023-04-02T05:09:29.002Z,2.40
2023-04-02T05:12:07.211Z,2.20
2023-04-02T05:14:38.974Z,2.13
2023-04-02T05:17:08.433Z,2.60
2023-04-02T05:19:40.965Z,2.10
2023-04-02T05:22:17.317Z,2.23
2023-04-02T05:24:54.311Z,2.37
2023-04-02T05:27:28.166Z,1.90
2023-04-02T05:29:58.932Z,2.27
2023-04-02T05:32:27.715Z,2.30
2023-04-02T05:34:56.083Z,2.23
2023-04-02T05:37:24.533Z,2.03
2023-04-02T05:39:55.552Z,2.13
2023-04-02T05:42:24.103Z,2.40
2023-04-02T05:45:20.871Z,1.90
2023-04-02T05:47:48.312Z,2.17
2023-04-02T05:50:27.164Z,2.33
2023-04-02T05:52:57.636Z,2.10
2023-04-02T05:55:37.172Z,1.93
2023-04-02T05:58:33.920Z,2.20
2023-04-02T06:01:21.028Z,1.80
2023-04-02T06:03:54.841Z,1.97
2023-04-02T06:06:42.618Z,2.00
2023-04-02T06:09:14.894Z,1.90
2023-04-02T06:11:45.672Z,1.63
2023-04-02T06:14:14.799Z,1.90
2023-04-02T06:16:40.111Z,1.90
2023-04-02T06:19:11.370Z,2.33
2023-04-02T06:21:35.061Z,2.00
2023-04-02T06:24:03.816Z,1.80
2023-04-02T06:26:35.404Z,1.97
2023-04-02T06:29:07.092Z,1.93
2023-04-02T06:31:42.301Z,2.10
2023-04-02T06:34:17.625Z,1.70
2023-04-02T06:36:50.941Z,1.83
2023-04-02T06:39:22.452Z,2.30
2023-04-02T06:41:46.762Z,1.70
2023-04-02T06:44:36.645Z,1.90
2023-04-02T06:47:40.174Z,3.00
2023-04-02T06:50:11.975Z,2.00
2023-04-02T06:52:41.664Z,2.00
2023-04-02T06:55:27.262Z,2.20
2023-04-02T06:57:51.395Z,1.83
2023-04-02T07:00:29.212Z,1.77
2023-04-02T07:02:54.920Z,2.00
2023-04-02T07:05:18.746Z,2.07
2023-04-02T07:07:44.660Z,1.50
2023-04-02T07:10:10.631Z,2.30
2023-04-02T07:12:34.426Z,2.20
2023-04-02T07:14:58.152Z,1.80
2023-04-02T07:17:23.359Z,2.07
2023-04-02T07:19:49.764Z,2.00
2023-04-02T07:22:15.986Z,2.20
2023-04-02T07:24:40.607Z,2.10
2023-04-02T07:27:04.383Z,1.60
2023-04-02T07:29:28.166Z,1.80
2023-04-02T07:31:53.914Z,1.87
2023-04-02T07:34:19.011Z,1.80
2023-04-02T07:36:42.722Z,2.27
2023-04-02T07:39:06.491Z,2.00
2023-04-02T07:41:30.195Z,2.00
2023-04-02T07:43:53.828Z,2.23
2023-04-02T07:46:19.206Z,1.70
2023-04-02T07:48:42.968Z,1.70
2023-04-02T07:51:18.605Z,1.90
2023-04-02T07:53:42.371Z,2.00
2023-04-02T07:56:08.281Z,1.63
2023-04-02T07:58:33.765Z,1.97
2023-04-02T08:00:57.605Z,2.30
2023-04-02T08:03:21.975Z,1.70
2023-04-02T08:05:51.400Z,1.50
2023-04-02T08:08:16.470Z,1.70
2023-04-02T08:10:40.104Z,1.80
2023-04-02T08:13:03.850Z,1.70
2023-04-02T08:15:27.417Z,1.67
2023-04-02T08:17:51.605Z,1.83
2023-04-02T08:20:19.323Z,1.70
2023-04-02T08:22:42.982Z,1.65
2023-04-02T08:25:09.614Z,1.73
2023-04-02T08:27:33.292Z,1.73
2023-04-02T08:29:56.885Z,1.47
2023-04-02T08:32:22.034Z,1.60
2023-04-02T08:34:46.652Z,1.40
2023-04-02T08:37:13.261Z,1.50
2023-04-02T08:39:36.907Z,1.58
2023-04-02T08:42:08.536Z,2.00
2023-04-02T08:44:45.353Z,1.67
2023-04-02T08:47:10.933Z,1.70
2023-04-02T08:49:41.838Z,1.50
2023-04-02T08:52:05.915Z,1.33
2023-04-02T08:54:32.362Z,1.80
2023-04-02T08:57:03.518Z,1.80
2023-04-02T08:59:34.844Z,2.35
2023-04-02T09:02:08.346Z,1.80
2023-04-02T09:04:34.930Z,1.45
2023-04-02T09:07:01.043Z,2.10
2023-04-02T09:09:25.274Z,1.60
2023-04-02T09:11:55.003Z,1.50
2023-04-02T09:14:22.990Z,1.65
2023-04-02T09:16:49.950Z,1.98
2023-04-02T09:19:21.350Z,1.50
2023-04-02T09:21:49.776Z,1.20
2023-04-02T09:24:13.978Z,0.95
2023-04-02T09:26:37.722Z,1.15
2023-04-02T09:29:32.979Z,1.60
2023-04-02T09:32:08.232Z,1.17
2023-04-02T09:34:33.895Z,1.40
2023-04-02T09:36:58.376Z,1.35
2023-04-02T09:39:25.881Z,1.40
2023-04-02T09:42:02.834Z,1.45
2023-04-02T09:44:31.582Z,1.60
2023-04-02T09:46:59.685Z,1.45
2023-04-02T09:49:27.475Z,1.58
2023-04-02T09:52:13.888Z,1.88
2023-04-02T09:54:41.869Z,1.60
2023-04-02T09:57:06.646Z,1.23
2023-04-02T09:59:31.800Z,1.27
2023-04-02T10:02:03.766Z,1.33
2023-04-02T10:04:44.110Z,1.30
2023-04-02T10:07:08.751Z,1.70
2023-04-02T10:09:35.463Z,1.38
2023-04-02T10:12:01.740Z,1.30
2023-04-02T10:14:32.660Z,1.55
2023-04-02T10:17:01.431Z,1.42
2023-04-02T10:19:31.521Z,1.33
2023-04-02T10:21:56.583Z,1.63
2023-04-02T10:24:20.784Z,1.50
2023-04-02T10:26:58.460Z,1.52
2023-04-02T10:30:12.893Z,1.60
2023-04-02T10:32:43.183Z,1.50
2023-04-02T10:35:19.243Z,1.85
2023-04-02T10:38:34.829Z,1.20
2023-04-02T10:41:02.607Z,1.10
2023-04-02T10:44:13.158Z,1.40
2023-04-02T10:46:58.185Z,1.35
2023-04-02T10:49:33.862Z,1.55
2023-04-02T10:52:03.013Z,1.63
2023-04-02T10:54:42.926Z,1.77
2023-04-02T10:57:22.053Z,1.40
2023-04-02T10:59:52.500Z,2.00
2023-04-02T11:02:36.108Z,1.55
2023-04-02T11:05:04.125Z,1.42
2023-04-02T11:07:33.540Z,1.80
2023-04-02T11:09:59.466Z,1.55
2023-04-02T11:12:28.506Z,2.05
2023-04-02T11:14:54.598Z,2.00
2023-04-02T11:17:21.393Z,1.88
2023-04-02T11:19:46.832Z,1.50
2023-04-02T11:22:17.352Z,1.70
2023-04-02T11:24:46.546Z,2.08
2023-04-02T11:27:30.738Z,1.77
2023-04-02T11:30:04.013Z,2.08
2023-04-02T11:32:39.616Z,1.70
2023-04-02T11:35:41.808Z,2.00
2023-04-02T11:38:54.915Z,1.27
2023-04-02T11:42:05.056Z,1.58
2023-04-02T11:44:28.656Z,1.92
2023-04-02T11:46:52.361Z,1.38
2023-04-02T11:49:40.115Z,1.80
2023-04-02T11:52:12.946Z,1.60
2023-04-02T11:54:39.785Z,1.63
2023-04-02T11:57:21.623Z,1.48
2023-04-02T11:59:59.400Z,1.70
2023-04-02T12:02:29.594Z,1.58
2023-04-02T12:05:14.692Z,1.33
2023-04-02T12:08:16.891Z,1.45
2023-04-02T12:10:56.626Z,1.27
2023-04-02T12:13:21.658Z,1.30
2023-04-02T12:15:46.688Z,1.30
2023-04-02T12:18:17.741Z,2.00
2023-04-02T12:20:44.950Z,1.60
2023-04-02T12:23:21.351Z,1.67
2023-04-02T12:25:55.086Z,1.15
2023-04-02T12:28:20.097Z,1.25
2023-04-02T12:30:43.891Z,1.40
2023-04-02T12:33:25.107Z,1.20
2023-04-02T12:35:51.658Z,1.40
2023-04-02T12:38:25.007Z,1.20
2023-04-02T12:40:54.472Z,1.85
2023-04-02T12:43:28.599Z,1.67
2023-04-02T12:45:54.888Z,1.58
2023-04-02T12:48:18.627Z,1.45
2023-04-02T12:50:43.005Z,1.00
2023-04-02T12:53:22.987Z,1.30
2023-04-02T12:55:49.498Z,1.20
2023-04-02T12:58:37.328Z,1.30
2023-04-02T13:01:18.472Z,1.17
2023-04-02T13:03:42.637Z,1.40
2023-04-02T13:06:23.417Z,1.15
2023-04-02T13:08:48.585Z,1.42
2023-04-02T13:11:12.171Z,1.50
2023-04-02T13:13:39.285Z,1.00
2023-04-02T13:16:21.316Z,1.00
2023-04-02T13:18:47.674Z,1.00
2023-04-02T13:21:28.841Z,1.08
2023-04-02T13:23:54.058Z,1.20
2023-04-02T13:26:20.240Z,1.10
2023-04-02T13:28:44.440Z,1.38
2023-04-02T13:31:09.785Z,0.98
2023-04-02T13:33:33.530Z,1.20
2023-04-02T13:35:57.224Z,1.30
2023-04-02T13:38:21.518Z,1.10
2023-04-02T13:40:47.096Z,1.20
2023-04-02T13:43:19.297Z,1.05
2023-04-02T13:45:44.121Z,1.42
2023-04-02T13:48:10.844Z,1.33
2023-04-02T13:50:37.438Z,1.45
2023-04-02T13:53:10.250Z,0.93
2023-04-02T13:55:39.952Z,1.30
2023-04-02T13:58:06.181Z,0.90
2023-04-02T14:00:29.804Z,1.10
2023-04-02T14:03:01.278Z,1.33
2023-04-02T14:05:39.082Z,0.95
2023-04-02T14:08:10.098Z,1.30
2023-04-02T14:10:53.152Z,1.25
2023-04-02T14:13:39.793Z,1.25
2023-04-02T14:16:23.119Z,1.10
2023-04-02T14:19:13.688Z,1.13
2023-04-02T14:21:52.047Z,1.00
2023-04-02T14:24:21.643Z,1.10
2023-04-02T14:27:00.548Z,1.15
2023-04-02T14:29:32.957Z,1.10
2023-04-02T14:32:05.046Z,1.30
2023-04-02T14:34:36.501Z,1.15
2023-04-02T14:37:13.167Z,1.20
2023-04-02T14:39:45.984Z,1.02
2023-04-02T14:42:17.319Z,1.20
2023-04-02T14:44:48.999Z,1.10
2023-04-02T14:47:19.732Z,0.95
2023-04-02T14:49:45.908Z,1.40
2023-04-02T14:52:15.425Z,1.70
2023-04-02T14:54:45.211Z,1.20
2023-04-02T14:57:18.978Z,1.30
2023-04-02T14:59:58.497Z,1.70
2023-04-02T15:02:30.723Z,1.50
2023-04-02T15:05:01.507Z,1.10
2023-04-02T15:07:32.410Z,1.42
2023-04-02T15:10:07.968Z,1.88
2023-04-02T15:12:36.646Z,1.00
2023-04-02T15:15:10.115Z,1.48
2023-04-02T15:17:34.168Z,1.15
2023-04-02T15:20:08.508Z,1.15
2023-04-02T15:22:40.318Z,1.15
2023-04-02T15:25:18.897Z,1.75
2023-04-02T15:28:01.368Z,1.27
2023-04-02T15:30:33.132Z,0.95
2023-04-02T15:33:20.738Z,1.30
2023-04-02T15:35:48.500Z,1.40
2023-04-02T15:38:19.451Z,1.40
2023-04-02T15:40:56.328Z,1.23
2023-04-02T15:43:25.871Z,1.42
2023-04-02T15:46:11.514Z,1.40
2023-04-02T15:48:56.094Z,1.10
2023-04-02T15:51:37.747Z,1.63
2023-04-02T15:54:16.202Z,1.35
2023-04-02T15:56:54.121Z,1.52
2023-04-02T15:59:42.462Z,1.67
2023-04-02T16:02:42.167Z,1.70
2023-04-02T16:05:18.738Z,1.40
2023-04-02T16:08:13.181Z,1.42
2023-04-02T16:10:42.374Z,1.20
2023-04-02T16:13:20.693Z,1.40
2023-04-02T16:15:50.230Z,1.33
2023-04-02T16:18:25.860Z,1.00
2023-04-02T16:20:52.833Z,1.30
2023-04-02T16:23:22.345Z,1.50
2023-04-02T16:25:57.430Z,1.60
2023-04-02T16:28:28.897Z,1.02
2023-04-02T16:30:59.693Z,1.27
2023-04-02T16:33:46.018Z,1.50
2023-04-02T16:36:27.497Z,1.40
2023-04-02T16:39:03.405Z,1.98
2023-04-02T16:41:44.306Z,1.58
2023-04-02T16:44:24.383Z,1.83
2023-04-02T16:47:01.468Z,1.60
2023-04-02T16:49:37.580Z,1.70
2023-04-02T16:52:16.484Z,1.27
2023-04-02T16:55:04.483Z,1.52
2023-04-02T16:57:37.985Z,1.20
2023-04-02T17:00:11.682Z,1.27
2023-04-02T17:02:53.074Z,1.60
2023-04-02T17:05:31.903Z,1.20
2023-04-02T17:08:07.346Z,1.20
2023-04-02T17:10:34.404Z,1.40
2023-04-02T17:13:12.118Z,1.52
2023-04-02T17:15:39.522Z,1.30
2023-04-02T17:18:11.780Z,1.50
2023-04-02T17:20:37.236Z,2.15
2023-04-02T17:23:04.741Z,1.80
2023-04-02T17:25:35.140Z,1.42
2023-04-02T17:27:59.442Z,1.60
2023-04-02T17:30:36.044Z,1.40
2023-04-02T17:32:59.975Z,1.60
2023-04-02T17:35:29.852Z,1.40
2023-04-02T17:38:04.111Z,1.53
2023-04-02T17:40:32.609Z,1.10
2023-04-02T17:43:05.130Z,1.70
2023-04-02T17:45:39.539Z,1.40
2023-04-02T17:48:08.768Z,1.97
2023-04-02T17:50:47.739Z,1.20
2023-04-02T17:53:28.389Z,1.45
2023-04-02T17:56:07.048Z,1.20
2023-04-02T17:58:57.647Z,1.80
2023-04-02T18:01:30.993Z,1.35
2023-04-02T18:04:08.439Z,1.50
2023-04-02T18:06:41.810Z,1.53
2023-04-02T18:09:29.837Z,1.83
2023-04-02T18:12:07.542Z,1.90
2023-04-02T18:14:55.723Z,1.40
2023-04-02T18:17:30.061Z,1.30
2023-04-02T18:20:04.033Z,2.13
2023-04-02T18:22:34.888Z,2.43
2023-04-02T18:25:19.908Z,3.10
2023-04-02T18:28:12.050Z,2.30
2023-04-02T18:30:40.856Z,1.83
2023-04-02T18:33:30.641Z,1.70
2023-04-02T18:36:06.450Z,2.50
2023-04-02T18:38:43.182Z,2.53
2023-04-02T18:41:24.416Z,1.90
2023-04-02T18:44:04.131Z,2.03
2023-04-02T18:46:39.986Z,2.23
2023-04-02T18:49:21.663Z,1.83
2023-04-02T18:51:46.418Z,1.80
2023-04-02T18:54:22.448Z,1.60
2023-04-02T18:56:47.681Z,2.00
2023-04-02T18:59:34.792Z,1.67
2023-04-02T19:02:00.206Z,1.80
2023-04-02T19:04:29.866Z,1.67
2023-04-02T19:06:58.868Z,2.07
2023-04-02T19:09:27.375Z,1.50
2023-04-02T19:11:53.220Z,1.60
2023-04-02T19:14:20.170Z,1.90
2023-04-02T19:17:02.773Z,1.90
2023-04-02T19:19:30.783Z,1.73
2023-04-02T19:22:16.892Z,1.90
2023-04-02T19:25:07.985Z,1.60
2023-04-02T19:27:42.936Z,1.33
2023-04-02T19:30:30.614Z,1.53
2023-04-02T19:33:08.389Z,1.40
2023-04-02T19:35:38.955Z,1.70
2023-04-02T19:38:24.310Z,2.17
2023-04-02T19:40:55.154Z,1.13
2023-04-02T19:43:20.335Z,1.70
2023-04-02T19:45:46.932Z,2.00
2023-04-02T19:48:17.334Z,1.97
2023-04-02T19:50:41.266Z,1.73
2023-04-02T19:53:05.051Z,2.10
2023-04-02T19:55:28.884Z,2.53
2023-04-02T19:57:54.632Z,1.83
2023-04-02T20:00:23.424Z,1.83
2023-04-02T20:02:47.084Z,2.10
2023-04-02T20:05:11.492Z,1.70
2023-04-02T20:07:35.214Z,1.43
2023-04-02T20:09:58.919Z,1.80
2023-04-02T20:12:22.600Z,1.73
2023-04-02T20:14:46.189Z,1.77
2023-04-02T20:17:11.293Z,2.00
2023-04-02T20:19:34.928Z,3.50
2023-04-02T20:21:58.555Z,1.80
2023-04-02T20:24:22.229Z,1.73
2023-04-02T20:26:45.946Z,1.53
2023-04-02T20:29:09.575Z,1.50
2023-04-02T20:31:33.527Z,1.77
2023-04-02T20:33:59.585Z,2.23
2023-04-02T20:36:24.682Z,2.00
2023-04-02T20:38:48.446Z,1.73
2023-04-02T20:41:12.693Z,1.87
2023-04-02T20:43:40.677Z,1.73
2023-04-02T20:46:08.350Z,1.90
2023-04-02T20:48:35.232Z,2.00
2023-04-02T20:51:02.022Z,1.77
2023-04-02T20:53:26.327Z,1.70
2023-04-02T20:55:50.326Z,1.70
2023-04-02T20:58:14.218Z,1.37
2023-04-02T21:00:37.895Z,2.00
2023-04-02T21:03:01.954Z,1.60
2023-04-02T21:05:25.868Z,1.70
2023-04-02T21:07:51.017Z,1.83
2023-04-02T21:10:14.735Z,1.70
2023-04-02T21:12:38.438Z,1.50
2023-04-02T21:15:02.932Z,1.23
2023-04-02T21:17:27.195Z,1.17
2023-04-02T21:19:50.960Z,1.90
2023-04-02T21:22:14.632Z,1.67
2023-04-02T21:24:39.756Z,1.77
2023-04-02T21:27:03.454Z,1.83
2023-04-02T21:29:27.221Z,1.40
2023-04-02T21:31:51.247Z,1.27
2023-04-02T21:34:17.429Z,1.63
2023-04-02T21:36:44.515Z,1.70
2023-04-02T21:39:10.644Z,1.87
2023-04-02T21:41:37.980Z,1.50
2023-04-02T21:44:05.461Z,1.43
2023-04-02T21:46:32.435Z,1.60
2023-04-02T21:48:59.566Z,1.67
2023-04-02T21:51:26.228Z,1.50
2023-04-02T21:53:50.828Z,1.53
2023-04-02T21:56:16.609Z,2.03
2023-04-02T21:58:43.407Z,1.50
2023-04-02T22:01:14.035Z,1.77
2023-04-02T22:03:44.279Z,2.00
2023-04-02T22:06:10.677Z,1.60
2023-04-02T22:08:34.550Z,1.30
2023-04-02T22:10:58.320Z,2.23
2023-04-02T22:13:22.088Z,2.40
2023-04-02T22:15:47.167Z,1.43
2023-04-02T22:18:10.964Z,1.50
2023-04-02T22:20:34.795Z,1.40
2023-04-02T22:22:58.768Z,2.10
2023-04-02T22:25:22.563Z,1.53
2023-04-02T22:27:46.305Z,2.00
2023-04-02T22:30:11.501Z,1.50
2023-04-02T22:32:37.462Z,1.80
2023-04-02T22:35:01.155Z,1.80
2023-04-02T22:37:24.914Z,1.90
2023-04-02T22:39:48.621Z,1.53
2023-04-02T22:42:12.319Z,2.10
2023-04-02T22:44:36.063Z,1.93
2023-04-02T22:46:59.729Z,1.77
2023-04-02T22:49:24.869Z,1.50
2023-04-02T22:51:48.855Z,1.70
2023-04-02T22:54:12.596Z,1.70
2023-04-02T22:56:37.577Z,1.80
2023-04-02T22:59:01.464Z,1.40
2023-04-02T23:01:28.595Z,1.33
2023-04-02T23:03:55.249Z,1.53
2023-04-02T23:06:20.393Z,1.77
2023-04-02T23:08:44.445Z,1.80
2023-04-02T23:11:11.849Z,1.70
2023-04-02T23:13:36.330Z,1.57
2023-04-02T23:16:02.054Z,1.40
2023-04-02T23:18:26.008Z,1.50
2023-04-02T23:20:50.016Z,1.93
2023-04-02T23:23:15.546Z,1.67
2023-04-02T23:25:41.279Z,1.80
2023-04-02T23:28:05.605Z,1.80
2023-04-02T23:30:29.579Z,1.47
2023-04-02T23:32:53.427Z,1.57
2023-04-02T23:35:17.572Z,1.73
2023-04-02T23:37:42.094Z,2.13
2023-04-02T23:40:10.135Z,1.67
2023-04-02T23:42:34.003Z,1.60
2023-04-02T23:44:57.941Z,1.60
2023-04-02T23:47:21.767Z,1.70
2023-04-02T23:49:47.943Z,1.77
2023-04-02T23:52:11.752Z,1.80
2023-04-02T23:54:35.763Z,2.07
2023-04-02T23:57:01.065Z,1.63
2023-04-02T23:59:25.057Z,1.70
